FMMI/TNR METAR and TAF weather

Enter ICAO airport designator
Station Type Date Time Source
FMMI METAR 2019/02/16 03:30 UTC NOAA

FMMI 160330Z 07003KT 9999 FEW017 19/17 Q1020 NOSIG


Station Type Date Time Source
FMMI Decoded METAR 2019/02/16 03:30 UTC NOAA

Antananarivo / Ivato, Madagascar (FMMI) 18-48S 047-29E 1276M
Feb 15, 2019 - 10:30 PM EST / 2019.02.16 0330 UTC
Wind: from the ENE (070 degrees) at 3 MPH (3 KT):0
Visibility: greater than 7 mile(s):0
Sky conditions: mostly clear
Temperature: 66 F (19 C)
Dew Point: 62 F (17 C)
Relative Humidity: 88%
Pressure (altimeter): 30.12 in. Hg (1020 hPa)
ob: FMMI 160330Z 07003KT 9999 FEW017 19/17 Q1020 NOSIG
cycle: 3

Station Type Date Time Source
FMMI TAF 2019/02/15 18:24 UTC NOAA

TAF TAF FMMI 151700Z 1518/1624 VRB03KT 9999 SCT017CB SCT020 PROB30
TEMPO 1518/1523 TSRA
BECMG 1520/1522 FEW017 SCT020
BECMG 1609/1611 SCT020CB SCT023 PROB30
TEMPO 1615/1618 TSRA
BECMG 1618/1621 FEW007 BKN020


Example: see airport list